createdAt,value
2017-10-09T00:01:05.798Z,10.60
2017-10-09T00:03:34.101Z,10.60
2017-10-09T00:06:02.426Z,10.60
2017-10-09T00:08:30.729Z,10.60
2017-10-09T00:10:59.110Z,10.60
2017-10-09T00:13:27.420Z,10.60
2017-10-09T00:15:55.753Z,10.60
2017-10-09T00:18:24.055Z,10.60
2017-10-09T00:20:53.374Z,10.60
2017-10-09T00:23:21.698Z,10.70
2017-10-09T00:25:50.058Z,10.60
2017-10-09T00:28:18.375Z,10.60
2017-10-09T00:30:46.682Z,10.70
2017-10-09T00:33:15.015Z,10.60
2017-10-09T00:35:43.355Z,10.60
2017-10-09T00:38:11.685Z,10.60
2017-10-09T00:40:39.993Z,10.60
2017-10-09T00:43:08.322Z,10.60
2017-10-09T00:45:36.666Z,10.60
2017-10-09T00:48:04.970Z,10.50
2017-10-09T00:50:33.298Z,10.50
2017-10-09T00:53:01.603Z,10.50
2017-10-09T00:55:29.926Z,10.50
2017-10-09T00:57:58.243Z,10.50
2017-10-09T01:00:25.806Z,10.50
2017-10-09T01:02:54.174Z,10.40
2017-10-09T01:05:22.358Z,10.40
2017-10-09T01:07:50.782Z,10.30
2017-10-09T01:10:19.128Z,10.20
2017-10-09T01:12:48.407Z,10.20
2017-10-09T01:15:16.715Z,10.20
2017-10-09T01:17:45.135Z,10.20
2017-10-09T01:20:13.438Z,10.10
2017-10-09T01:22:41.840Z,10.10
2017-10-09T01:25:10.148Z,10.10
2017-10-09T01:27:38.540Z,10.10
2017-10-09T01:30:06.842Z,10.10
2017-10-09T01:32:35.255Z,10.10
2017-10-09T01:35:03.562Z,10.10
2017-10-09T01:37:32.378Z,10.10
2017-10-09T01:40:00.742Z,10.10
2017-10-09T01:42:29.149Z,10.10
2017-10-09T01:44:57.486Z,10.10
2017-10-09T01:47:25.858Z,10.10
2017-10-09T01:49:54.183Z,10.10
2017-10-09T01:52:22.595Z,10.00
2017-10-09T01:54:50.914Z,10.10
2017-10-09T01:57:19.282Z,10.10
2017-10-09T01:59:47.627Z,10.10
2017-10-09T02:02:15.986Z,10.10
2017-10-09T02:04:44.921Z,10.10
2017-10-09T02:07:14.282Z,10.00
2017-10-09T02:09:42.582Z,10.00
2017-10-09T02:12:10.983Z,10.00
2017-10-09T02:14:39.282Z,10.00
2017-10-09T02:17:07.678Z,10.00
2017-10-09T02:19:35.983Z,10.10
2017-10-09T02:22:04.395Z,10.10
2017-10-09T02:24:32.735Z,10.10
2017-10-09T02:27:01.094Z,10.10
2017-10-09T02:29:29.402Z,10.10
2017-10-09T02:31:57.799Z,10.10
2017-10-09T02:34:26.123Z,10.10
2017-10-09T02:36:54.482Z,10.10
2017-10-09T02:39:23.818Z,10.20
2017-10-09T02:41:52.882Z,10.20
2017-10-09T02:44:21.210Z,10.20
2017-10-09T02:46:49.554Z,10.20
2017-10-09T02:49:17.869Z,10.20
2017-10-09T02:51:46.170Z,10.20
2017-10-09T02:54:15.506Z,10.20
2017-10-09T02:56:45.015Z,10.20
2017-10-09T02:59:14.364Z,10.20
2017-10-09T03:01:43.875Z,10.10
2017-10-09T03:04:13.807Z,10.10
2017-10-09T03:06:42.166Z,10.10
2017-10-09T03:09:10.518Z,10.10
2017-10-09T03:11:38.891Z,10.10
2017-10-09T03:14:07.209Z,10.10
2017-10-09T03:16:35.611Z,10.20
2017-10-09T03:19:03.925Z,10.10
2017-10-09T03:21:32.258Z,10.20
2017-10-09T03:24:22.034Z,10.20
2017-10-09T03:26:52.939Z,10.10
2017-10-09T03:29:25.178Z,10.10
2017-10-09T03:31:54.331Z,10.10
2017-10-09T03:34:22.670Z,10.10
2017-10-09T03:36:50.975Z,10.10
2017-10-09T03:39:19.298Z,10.10
2017-10-09T03:41:47.605Z,10.10
2017-10-09T03:44:16.022Z,10.10
2017-10-09T03:46:45.329Z,10.10
2017-10-09T03:49:15.383Z,10.10
2017-10-09T03:51:45.007Z,10.10
2017-10-09T03:54:13.435Z,10.10
2017-10-09T03:56:41.730Z,10.10
2017-10-09T03:59:10.119Z,10.10
2017-10-09T04:01:38.447Z,10.10
2017-10-09T04:04:06.813Z,10.10
2017-10-09T04:06:35.139Z,10.10
2017-10-09T04:09:03.534Z,10.10
2017-10-09T04:11:31.859Z,10.10
2017-10-09T04:14:00.246Z,10.10
2017-10-09T04:16:27.838Z,10.10
2017-10-09T04:18:56.234Z,10.10
2017-10-09T04:21:24.546Z,10.10
2017-10-09T04:23:54.289Z,10.10
2017-10-09T04:26:23.038Z,10.10
2017-10-09T04:28:52.139Z,10.10
2017-10-09T04:31:20.446Z,10.10
2017-10-09T04:33:48.831Z,10.10
2017-10-09T04:36:17.146Z,10.10
2017-10-09T04:38:45.555Z,10.00
2017-10-09T04:41:15.051Z,10.00
2017-10-09T04:43:43.350Z,10.00
2017-10-09T04:46:11.681Z,10.00
2017-10-09T04:48:40.055Z,10.00
2017-10-09T04:51:08.374Z,9.90
2017-10-09T04:53:36.758Z,9.90
2017-10-09T04:56:05.082Z,9.90
2017-10-09T04:58:33.470Z,9.80
2017-10-09T05:01:01.819Z,9.80
2017-10-09T05:03:30.173Z,9.80
2017-10-09T05:05:58.476Z,9.70
2017-10-09T05:08:26.902Z,9.70
2017-10-09T05:10:55.206Z,9.70
2017-10-09T05:13:23.534Z,9.70
2017-10-09T05:15:51.837Z,9.80
2017-10-09T05:18:20.207Z,9.80
2017-10-09T05:20:48.516Z,9.80
2017-10-09T05:23:17.282Z,9.80
2017-10-09T05:25:45.586Z,9.80
2017-10-09T05:28:14.643Z,9.80
2017-10-09T05:30:44.375Z,9.80
2017-10-09T05:33:13.727Z,9.80
2017-10-09T05:35:42.477Z,9.80
2017-10-09T05:38:10.818Z,9.80
2017-10-09T05:40:39.161Z,9.80
2017-10-09T05:43:07.746Z,9.80
2017-10-09T05:45:36.067Z,9.80
2017-10-09T05:48:04.454Z,9.80
2017-10-09T05:50:32.758Z,9.80
2017-10-09T05:53:01.185Z,9.80
2017-10-09T05:55:29.491Z,9.80
2017-10-09T05:57:57.887Z,9.80
2017-10-09T06:00:26.195Z,9.90
2017-10-09T06:02:53.776Z,9.90
2017-10-09T06:05:22.086Z,10.00
2017-10-09T06:07:50.488Z,9.90
2017-10-09T06:10:18.800Z,10.00
2017-10-09T06:12:47.190Z,10.00
2017-10-09T06:15:14.737Z,10.00
2017-10-09T06:17:44.399Z,10.10
2017-10-09T06:20:13.727Z,10.20
2017-10-09T06:22:43.816Z,10.20
2017-10-09T06:25:13.738Z,10.30
2017-10-09T06:27:42.093Z,10.30
2017-10-09T06:30:10.399Z,10.40
2017-10-09T06:32:38.709Z,10.50
2017-10-09T06:35:08.214Z,10.50
2017-10-09T06:37:36.594Z,10.50
2017-10-09T06:40:04.934Z,10.50
2017-10-09T06:42:33.302Z,10.50
2017-10-09T06:45:01.631Z,10.40
2017-10-09T06:47:29.290Z,10.40
2017-10-09T06:49:57.623Z,10.30
2017-10-09T06:52:25.999Z,10.40
2017-10-09T06:54:54.330Z,10.50
2017-10-09T06:57:22.707Z,10.60
2017-10-09T06:59:51.056Z,10.80
2017-10-09T07:02:19.406Z,11.00
2017-10-09T07:04:47.720Z,11.20
2017-10-09T07:07:16.136Z,11.40
2017-10-09T07:09:45.551Z,11.60
2017-10-09T07:12:15.099Z,11.80
2017-10-09T07:14:43.412Z,11.90
2017-10-09T07:17:11.807Z,11.90
2017-10-09T07:19:40.120Z,11.90
2017-10-09T07:22:08.474Z,11.90
2017-10-09T07:24:37.339Z,11.90
2017-10-09T07:27:06.255Z,11.80
2017-10-09T07:29:34.595Z,11.90
2017-10-09T07:32:02.936Z,11.90
2017-10-09T07:34:31.266Z,11.90
2017-10-09T07:36:59.638Z,11.90
2017-10-09T07:39:27.962Z,11.90
2017-10-09T07:41:56.350Z,12.00
2017-10-09T07:44:24.687Z,12.10
2017-10-09T07:46:52.998Z,12.20
2017-10-09T07:49:21.326Z,12.40
2017-10-09T07:51:49.662Z,12.40
2017-10-09T07:54:17.215Z,12.40
2017-10-09T07:56:45.563Z,12.70
2017-10-09T07:59:14.959Z,12.70
2017-10-09T08:01:43.650Z,12.70
2017-10-09T08:04:11.955Z,12.90
2017-10-09T08:06:40.287Z,13.10
2017-10-09T08:09:08.594Z,13.20
2017-10-09T08:11:37.951Z,13.30
2017-10-09T08:14:07.890Z,13.40
2017-10-09T08:16:37.350Z,13.40
2017-10-09T08:19:06.151Z,13.50
2017-10-09T08:21:34.535Z,13.60
2017-10-09T08:24:02.854Z,13.70
2017-10-09T08:26:31.158Z,13.90
2017-10-09T08:28:59.485Z,14.00
2017-10-09T08:31:27.842Z,14.00
2017-10-09T08:33:56.174Z,14.10
2017-10-09T08:36:23.764Z,14.10
2017-10-09T08:38:52.091Z,14.10
2017-10-09T08:41:19.730Z,14.10
2017-10-09T08:43:48.042Z,14.20
2017-10-09T08:46:16.437Z,14.30
2017-10-09T08:48:44.763Z,14.50
2017-10-09T08:51:13.994Z,14.60
2017-10-09T08:53:43.229Z,14.60
2017-10-09T08:56:11.550Z,14.50
2017-10-09T08:58:39.903Z,14.50
2017-10-09T09:01:08.235Z,14.60
2017-10-09T09:03:37.031Z,14.60
2017-10-09T09:06:06.169Z,14.70
2017-10-09T09:08:34.476Z,14.80
2017-10-09T09:11:02.793Z,15.00
2017-10-09T09:13:31.090Z,15.10
2017-10-09T09:15:59.415Z,15.50
2017-10-09T09:18:27.719Z,15.80
2017-10-09T09:20:56.051Z,15.80
2017-10-09T09:23:24.470Z,15.70
2017-10-09T09:25:52.766Z,15.60
2017-10-09T09:28:21.184Z,15.60
2017-10-09T09:30:48.728Z,15.50
2017-10-09T09:33:17.045Z,15.50
2017-10-09T09:35:45.463Z,15.60
2017-10-09T09:38:15.028Z,15.60
2017-10-09T09:40:44.272Z,15.50
2017-10-09T09:43:12.628Z,15.50
2017-10-09T09:45:40.935Z,15.40
2017-10-09T09:48:09.285Z,15.30
2017-10-09T09:50:37.735Z,15.20
2017-10-09T09:53:06.078Z,15.20
2017-10-09T09:55:34.474Z,15.20
2017-10-09T09:58:02.774Z,15.30
2017-10-09T10:00:31.188Z,15.20
2017-10-09T10:02:59.556Z,15.30
2017-10-09T10:05:27.970Z,15.30
2017-10-09T10:07:56.270Z,15.30
2017-10-09T10:10:24.688Z,15.30
2017-10-09T10:12:52.987Z,15.40
2017-10-09T10:15:21.420Z,15.40
2017-10-09T10:17:49.719Z,15.50
2017-10-09T10:20:18.079Z,15.50
2017-10-09T10:22:46.402Z,15.50
2017-10-09T10:25:14.787Z,15.40
2017-10-09T10:27:44.679Z,15.30
2017-10-09T10:30:14.323Z,15.30
2017-10-09T10:32:44.078Z,15.20
2017-10-09T10:35:13.182Z,15.20
2017-10-09T10:37:41.516Z,15.20
2017-10-09T10:40:09.867Z,15.20
2017-10-09T10:42:38.191Z,15.20
2017-10-09T10:45:06.502Z,15.30
2017-10-09T10:47:34.811Z,15.30
2017-10-09T10:50:03.187Z,15.50
2017-10-09T10:52:31.567Z,15.50
2017-10-09T10:54:59.894Z,15.50
2017-10-09T10:57:28.195Z,15.50
2017-10-09T10:59:56.532Z,15.60
2017-10-09T11:02:24.076Z,15.60
2017-10-09T11:04:52.403Z,15.60
2017-10-09T11:07:20.711Z,15.60
2017-10-09T11:09:49.094Z,15.70
2017-10-09T11:12:16.626Z,15.70
2017-10-09T11:14:45.368Z,15.80
2017-10-09T11:17:14.085Z,15.80
2017-10-09T11:19:43.147Z,16.10
2017-10-09T11:22:11.466Z,16.20
2017-10-09T11:24:39.770Z,16.30
2017-10-09T11:27:08.092Z,16.50
2017-10-09T11:29:36.935Z,16.70
2017-10-09T11:32:05.305Z,16.80
2017-10-09T11:34:32.839Z,16.80
2017-10-09T11:37:01.226Z,17.00
2017-10-09T11:39:29.543Z,16.90
2017-10-09T11:41:57.935Z,17.00
2017-10-09T11:44:26.263Z,17.10
2017-10-09T11:46:54.638Z,17.00
2017-10-09T11:49:22.955Z,17.10
2017-10-09T11:51:51.351Z,17.10
2017-10-09T11:54:19.678Z,17.10
2017-10-09T11:56:48.060Z,17.30
2017-10-09T11:59:16.402Z,17.60
2017-10-09T12:01:44.772Z,17.80
2017-10-09T12:04:14.699Z,17.70
2017-10-09T12:06:43.984Z,17.50
2017-10-09T12:09:12.907Z,17.30
2017-10-09T12:11:41.227Z,17.30
2017-10-09T12:14:09.522Z,17.50
2017-10-09T12:16:37.870Z,17.60
2017-10-09T12:19:06.498Z,17.70
2017-10-09T12:21:34.802Z,17.90
2017-10-09T12:24:03.118Z,18.20
2017-10-09T12:26:31.416Z,18.30
2017-10-09T12:28:59.741Z,18.50
2017-10-09T12:31:28.039Z,18.40
2017-10-09T12:33:56.357Z,18.40
2017-10-09T12:36:24.702Z,18.40
2017-10-09T12:38:53.058Z,18.40
2017-10-09T12:41:21.402Z,18.20
2017-10-09T12:43:49.705Z,18.10
2017-10-09T12:46:17.274Z,18.10
2017-10-09T12:48:45.579Z,17.90
2017-10-09T12:51:15.054Z,17.80
2017-10-09T12:53:43.354Z,17.90
2017-10-09T12:56:13.687Z,17.80
2017-10-09T12:58:41.990Z,17.70
2017-10-09T13:01:10.327Z,17.70
2017-10-09T13:03:38.629Z,17.90
2017-10-09T13:06:08.166Z,17.90
2017-10-09T13:08:37.471Z,17.90
2017-10-09T13:11:07.929Z,17.90
2017-10-09T13:13:37.183Z,18.00
2017-10-09T13:16:05.604Z,18.10
2017-10-09T13:18:33.938Z,18.10
2017-10-09T13:21:02.267Z,18.10
2017-10-09T13:23:29.842Z,18.00
2017-10-09T13:25:58.170Z,17.90
2017-10-09T13:28:26.499Z,17.80
2017-10-09T13:30:54.880Z,17.60
2017-10-09T13:33:23.205Z,17.60
2017-10-09T13:35:51.586Z,17.60
2017-10-09T13:38:19.914Z,17.50
2017-10-09T13:40:48.302Z,17.40
2017-10-09T13:43:16.598Z,17.40
2017-10-09T13:45:44.935Z,17.30
2017-10-09T13:48:14.150Z,17.20
2017-10-09T13:50:44.031Z,17.20
2017-10-09T13:53:13.868Z,17.20
2017-10-09T13:55:42.408Z,17.20
2017-10-09T13:58:10.750Z,17.20
2017-10-09T14:00:39.162Z,17.20
2017-10-09T14:03:08.061Z,17.10
2017-10-09T14:05:37.359Z,17.10
2017-10-09T14:08:06.118Z,17.10
2017-10-09T14:10:34.491Z,17.10
2017-10-09T14:13:02.810Z,17.20
2017-10-09T14:15:31.130Z,17.10
2017-10-09T14:17:59.467Z,17.10
2017-10-09T14:20:27.815Z,17.10
2017-10-09T14:22:56.151Z,17.10
2017-10-09T14:25:24.454Z,17.30
2017-10-09T14:27:52.790Z,17.20
2017-10-09T14:30:21.526Z,17.10
2017-10-09T14:40:14.735Z,16.60
2017-10-09T14:42:44.416Z,16.40
2017-10-09T14:45:13.822Z,16.30
2017-10-09T14:47:42.121Z,16.30
2017-10-09T14:50:10.543Z,16.20
2017-10-09T14:52:38.853Z,16.10
2017-10-09T14:55:08.004Z,16.00
2017-10-09T14:57:37.499Z,16.00
2017-10-09T15:00:07.021Z,16.00
2017-10-09T15:02:35.323Z,16.20
2017-10-09T15:05:05.079Z,16.40
2017-10-09T15:07:34.252Z,16.70
2017-10-09T15:10:02.563Z,16.90
2017-10-09T15:12:30.883Z,17.20
2017-10-09T15:14:59.179Z,17.40
2017-10-09T15:17:27.516Z,17.40
2017-10-09T15:19:55.856Z,17.50
2017-10-09T15:22:24.239Z,17.40
2017-10-09T15:24:52.574Z,17.30
2017-10-09T15:27:20.874Z,17.20
2017-10-09T15:29:49.194Z,17.10
2017-10-09T15:32:17.495Z,16.90
2017-10-09T15:34:45.835Z,16.80
2017-10-09T15:37:15.299Z,16.60
2017-10-09T15:39:44.842Z,16.40
2017-10-09T15:42:14.452Z,16.30
2017-10-09T15:44:43.894Z,16.10
2017-10-09T15:47:12.250Z,16.00
2017-10-09T15:49:40.598Z,15.90
2017-10-09T15:52:08.937Z,15.80
2017-10-09T15:54:38.590Z,15.60
2017-10-09T15:57:07.960Z,15.50
2017-10-09T15:59:38.447Z,15.40
2017-10-09T16:02:06.766Z,15.30
2017-10-09T16:04:34.498Z,15.30
2017-10-09T16:07:02.847Z,15.10
2017-10-09T16:09:31.189Z,15.00
2017-10-09T16:11:59.757Z,14.90
2017-10-09T16:14:28.122Z,14.90
2017-10-09T16:16:56.427Z,14.80
2017-10-09T16:19:24.831Z,14.70
2017-10-09T16:21:53.141Z,14.60
2017-10-09T16:24:21.537Z,14.60
2017-10-09T16:26:49.959Z,14.50
2017-10-09T16:29:18.386Z,14.50
2017-10-09T16:31:45.931Z,14.40
2017-10-09T16:34:16.421Z,14.40
2017-10-09T16:36:45.027Z,14.30
2017-10-09T16:39:15.523Z,14.20
2017-10-09T16:41:44.979Z,14.20
2017-10-09T16:44:13.367Z,14.20
2017-10-09T16:46:41.683Z,14.10
2017-10-09T16:49:09.987Z,14.10
2017-10-09T16:51:38.407Z,14.00
2017-10-09T16:54:07.203Z,14.00
2017-10-09T16:56:36.170Z,13.90
2017-10-09T16:59:04.500Z,13.90
2017-10-09T17:01:32.082Z,13.90
2017-10-09T17:04:00.415Z,13.80
2017-10-09T17:06:28.728Z,13.80
2017-10-09T17:08:57.159Z,13.80
2017-10-09T17:11:25.847Z,13.70
2017-10-09T17:13:54.227Z,13.70
2017-10-09T17:16:22.531Z,13.60
2017-10-09T17:18:52.510Z,13.60
2017-10-09T17:21:20.823Z,13.60
2017-10-09T17:23:50.147Z,13.50
2017-10-09T17:26:18.504Z,13.50
2017-10-09T17:28:46.816Z,13.50
2017-10-09T17:31:15.147Z,13.50
2017-10-09T17:33:43.545Z,13.40
2017-10-09T17:36:11.875Z,13.40
2017-10-09T17:38:40.343Z,13.40
2017-10-09T17:41:08.708Z,13.30
2017-10-09T17:43:37.867Z,13.30
2017-10-09T17:46:07.578Z,13.30
2017-10-09T17:48:37.907Z,13.30
2017-10-09T17:51:07.801Z,13.20
2017-10-09T17:53:36.184Z,13.20
2017-10-09T17:56:04.577Z,13.10
2017-10-09T17:58:32.911Z,13.10
2017-10-09T18:01:01.349Z,13.00
2017-10-09T18:03:29.779Z,13.00
2017-10-09T18:05:58.088Z,13.00
2017-10-09T18:08:26.406Z,13.00
2017-10-09T18:10:54.765Z,13.00
2017-10-09T18:13:23.084Z,13.00
2017-10-09T18:15:51.525Z,13.00
2017-10-09T18:18:20.192Z,13.00
2017-10-09T18:20:48.551Z,13.00
2017-10-09T18:23:16.866Z,13.00
2017-10-09T18:25:45.180Z,13.00
2017-10-09T18:28:14.508Z,12.90
2017-10-09T18:30:42.130Z,12.90
2017-10-09T18:33:10.588Z,12.90
2017-10-09T18:35:38.906Z,12.90
2017-10-09T18:38:08.546Z,12.90
2017-10-09T18:40:38.247Z,12.80
2017-10-09T18:43:07.004Z,12.80
2017-10-09T18:45:35.359Z,12.70
2017-10-09T18:48:04.582Z,12.70
2017-10-09T18:50:32.924Z,12.60
2017-10-09T18:53:01.275Z,12.60
2017-10-09T18:55:29.639Z,12.60
2017-10-09T18:57:57.979Z,12.50
2017-10-09T19:00:26.349Z,12.50
2017-10-09T19:02:54.663Z,12.40
2017-10-09T19:05:23.044Z,12.50
2017-10-09T19:07:51.441Z,12.50
2017-10-09T19:10:19.824Z,12.50
2017-10-09T19:12:47.766Z,12.50
2017-10-09T19:15:16.083Z,12.50
2017-10-09T19:17:45.963Z,12.40
2017-10-09T19:20:15.627Z,12.40
2017-10-09T19:22:44.807Z,12.40
2017-10-09T19:25:14.612Z,12.40
2017-10-09T19:27:44.307Z,12.40
2017-10-09T19:30:13.600Z,12.30
2017-10-09T19:32:41.957Z,12.30
2017-10-09T19:35:10.438Z,12.30
2017-10-09T19:37:38.851Z,12.30
2017-10-09T19:40:07.868Z,12.30
2017-10-09T19:42:37.318Z,12.20
2017-10-09T19:45:06.163Z,12.20
2017-10-09T19:47:34.490Z,12.20
2017-10-09T19:50:03.792Z,12.30
2017-10-09T19:52:32.100Z,12.20
2017-10-09T19:55:00.444Z,12.20
2017-10-09T19:57:28.755Z,12.20
2017-10-09T19:59:57.139Z,12.20
2017-10-09T20:02:25.444Z,12.20
2017-10-09T20:04:53.840Z,12.20
2017-10-09T20:07:22.186Z,12.20
2017-10-09T20:09:51.494Z,12.20
2017-10-09T20:12:19.835Z,12.30
2017-10-09T20:14:48.168Z,12.30
2017-10-09T20:17:16.498Z,12.30
2017-10-09T20:19:44.921Z,12.30
2017-10-09T20:22:14.647Z,12.30
2017-10-09T20:24:43.840Z,12.30
2017-10-09T20:27:11.420Z,12.30
2017-10-09T20:29:40.774Z,12.30
2017-10-09T20:32:09.092Z,12.30
2017-10-09T20:34:38.797Z,12.30
2017-10-09T20:37:08.402Z,12.30
2017-10-09T20:39:36.741Z,12.30
2017-10-09T20:42:05.064Z,12.30
2017-10-09T20:44:33.431Z,12.30
2017-10-09T20:47:01.738Z,12.30
2017-10-09T20:49:31.092Z,12.30
2017-10-09T20:51:59.419Z,12.40
2017-10-09T20:54:27.779Z,12.40
2017-10-09T20:56:56.090Z,12.30
2017-10-09T20:59:25.454Z,12.30
2017-10-09T21:01:53.764Z,12.40
2017-10-09T21:04:22.093Z,12.40
2017-10-09T21:06:50.418Z,12.40
2017-10-09T21:09:18.806Z,12.40
2017-10-09T21:11:47.130Z,12.30
2017-10-09T21:14:14.691Z,12.30
2017-10-09T21:16:44.398Z,12.30
2017-10-09T21:19:13.787Z,12.30
2017-10-09T21:21:42.124Z,12.30
2017-10-09T21:24:10.499Z,12.30
2017-10-09T21:26:38.854Z,12.30
2017-10-09T21:29:07.891Z,12.30
2017-10-09T21:31:36.138Z,12.30
2017-10-09T21:34:04.629Z,12.30
2017-10-09T21:36:32.963Z,12.30
2017-10-09T21:39:01.355Z,12.30
2017-10-09T21:41:29.671Z,12.30
2017-10-09T21:43:58.071Z,12.30
2017-10-09T21:46:26.389Z,12.30
2017-10-09T21:48:54.725Z,12.30
2017-10-09T21:51:23.148Z,12.30
2017-10-09T21:53:51.503Z,12.30
2017-10-09T21:56:19.851Z,12.30
2017-10-09T21:58:48.177Z,12.30
2017-10-09T22:01:16.579Z,12.30
2017-10-09T22:03:44.895Z,12.20
2017-10-09T22:06:14.244Z,12.20
2017-10-09T22:08:42.558Z,12.20
2017-10-09T22:11:10.933Z,12.20
2017-10-09T22:13:39.247Z,12.10
2017-10-09T22:16:07.892Z,12.10
2017-10-09T22:18:37.106Z,12.00
2017-10-09T22:21:06.110Z,12.00
2017-10-09T22:23:34.443Z,11.90
2017-10-09T22:26:02.802Z,11.90
2017-10-09T22:28:31.155Z,11.90
2017-10-09T22:30:59.507Z,11.90
2017-10-09T22:33:27.839Z,11.90
2017-10-09T22:35:56.210Z,11.90
2017-10-09T22:38:24.560Z,11.90
2017-10-09T22:40:52.924Z,11.90
2017-10-09T22:43:21.235Z,11.90
2017-10-09T22:45:49.650Z,11.90
2017-10-09T22:48:17.966Z,11.90
2017-10-09T22:50:46.356Z,11.90
2017-10-09T22:53:14.689Z,12.00
2017-10-09T22:55:43.800Z,12.00
2017-10-09T22:58:12.110Z,12.00
2017-10-09T23:00:40.503Z,12.00
2017-10-09T23:03:08.832Z,12.00
2017-10-09T23:05:37.495Z,12.00
2017-10-09T23:08:05.824Z,12.00
2017-10-09T23:10:34.187Z,12.00
2017-10-09T23:13:02.524Z,12.00
2017-10-09T23:15:30.886Z,12.00
2017-10-09T23:17:59.210Z,12.00
2017-10-09T23:20:27.643Z,12.00
2017-10-09T23:22:55.230Z,12.00
2017-10-09T23:25:23.595Z,12.10
2017-10-09T23:27:51.905Z,12.10
2017-10-09T23:30:21.255Z,12.10
2017-10-09T23:32:49.567Z,12.10
2017-10-09T23:35:17.950Z,12.00
2017-10-09T23:37:46.268Z,12.10
2017-10-09T23:40:14.669Z,12.10
2017-10-09T23:42:43.848Z,12.10
2017-10-09T23:45:13.456Z,12.10
2017-10-09T23:47:41.762Z,12.10
2017-10-09T23:50:10.126Z,12.10
2017-10-09T23:52:38.463Z,12.10
2017-10-09T23:55:07.787Z,12.10
2017-10-09T23:57:36.148Z,12.10
